Time;durP1;ratioP1;P1;durP2;ratioP2;P2;SDS_P1;SDS_P2;PMS_P1;PMS_P2;Temp;Humidity;BMP_temperature;BMP_pressure;BME280_temperature;BME280_humidity;BME280_pressure;Samples;Min_cycle;Max_cycle;Signal;HPM_P1;HPM_P2
2021/12/09 00:01:22;;;;;;;;;;;;;;;-0.20;100.00;100127.91;5052552;28;19932;-55
2021/12/09 00:03:50;;;;;;;;;;;;;;;-0.22;100.00;100127.09;5050270;28;19925;-49
2021/12/09 00:06:21;;;;;;;;;;;;;;;-0.26;100.00;100136.69;5049825;28;19925;-49
2021/12/09 00:08:48;;;;;;;;;;;;;;;-0.25;100.00;100132.34;5052174;28;20442;-56
2021/12/09 00:11:15;;;;;;;;;;;;;;;-0.29;100.00;100131.59;5052581;28;19929;-55
2021/12/09 00:13:41;;;;;;;;;;;;;;;-0.35;100.00;100137.81;5052709;28;19925;-50
2021/12/09 00:16:08;;;;;;;;;;;;;;;-0.37;100.00;100138.75;5052619;28;19925;-49
2021/12/09 00:18:35;;;;;;;;;;;;;;;-0.33;100.00;100134.34;5084580;28;19936;-50
2021/12/09 00:21:02;;;;;;;;;;;;;;;-0.31;100.00;100127.38;5050084;28;19935;-57
2021/12/09 00:23:29;;;;;;;;;;;;;;;-0.34;100.00;100146.44;5048284;28;19935;-56
2021/12/09 00:25:55;;;;;;;;;;;;;;;-0.28;100.00;100142.81;5049291;28;19929;-56
2021/12/09 00:28:22;;;;;;;;;;;;;;;-0.35;100.00;100147.31;5087410;28;19925;-54
2021/12/09 00:30:49;;;;;;;;;;;;;;;-0.36;100.00;100136.09;5056371;28;19929;-57
2021/12/09 00:33:16;;;;;;;;;;;;;;;-0.39;100.00;100140.53;5056527;28;19928;-55
2021/12/09 00:35:55;;;;;;;;;;;;;;;-0.46;100.00;100139.88;5054095;28;19925;-53
2021/12/09 00:38:38;;;;;;;;;;;;;;;-0.44;100.00;100134.66;5054543;28;19924;-55
2021/12/09 00:41:07;;;;;;;;;;;;;;;-0.44;100.00;100137.25;5084070;28;20692;-57
2021/12/09 00:43:34;;;;;;;;;;;;;;;-0.43;100.00;100133.78;5086505;28;19925;-55
2021/12/09 00:46:01;;;;;;;;;;;;;;;-0.45;100.00;100135.56;5069039;28;20470;-49
2021/12/09 00:48:27;;;;;;;;;;;;;;;-0.49;100.00;100145.16;5056414;28;19929;-55
2021/12/09 00:50:55;;;;;;;;;;;;;;;-0.54;100.00;100140.13;5054965;28;19925;-56
2021/12/09 00:53:21;;;;;;;;;;;;;;;-0.56;100.00;100134.16;5084151;28;20356;-50
2021/12/09 00:55:48;;;;;;;;;;;;;;;-0.60;100.00;100140.31;5052841;28;19929;-48
2021/12/09 00:58:15;;;;;;;;;;;;;;;-0.60;100.00;100145.47;5054125;28;19928;-56
2021/12/09 01:00:41;;;;;;;;;;;;;;;-0.60;100.00;100145.47;5055479;28;20487;-51
2021/12/09 01:03:08;;;;;;;;;;;;;;;-0.63;100.00;100144.72;5056104;28;19960;-57
2021/12/09 01:05:35;;;;;;;;;;;;;;;-0.53;100.00;100146.97;5088165;28;19948;-58
2021/12/09 01:08:02;;;;;;;;;;;;;;;-0.58;100.00;100146.25;5055522;28;19925;-53
2021/12/09 01:10:28;;;;;;;;;;;;;;;-0.60;100.00;100150.66;5055995;28;19967;-56
2021/12/09 01:12:55;;;;;;;;;;;;;;;-0.59;100.00;100147.16;5055808;28;20399;-49
2021/12/09 01:15:22;;;;;;;;;;;;;;;-0.61;100.00;100153.28;5054042;28;20609;-55
2021/12/09 01:17:49;;;;;;;;;;;;;;;-0.62;100.00;100151.59;5050876;28;19928;-55
2021/12/09 01:20:17;;;;;;;;;;;;;;;-0.67;100.00;100149.13;5084604;28;19951;-56
2021/12/09 01:22:45;;;;;;;;;;;;;;;-0.67;100.00;100151.69;5086456;28;19928;-53
2021/12/09 01:25:13;;;;;;;;;;;;;;;-0.73;100.00;100157.91;5086967;28;19924;-50
2021/12/09 01:27:43;;;;;;;;;;;;;;;-0.76;100.00;100167.50;5055191;28;19925;-56
2021/12/09 01:30:13;;;;;;;;;;;;;;;-0.78;100.00;100167.50;5086446;28;19974;-52
2021/12/09 01:32:48;;;;;;;;;;;;;;;-0.82;100.00;100163.31;5052843;28;19925;-55
2021/12/09 01:35:19;;;;;;;;;;;;;;;-0.86;100.00;100160.00;5054265;28;19929;-56
2021/12/09 01:37:47;;;;;;;;;;;;;;;-0.86;100.00;100175.50;5084589;28;19928;-49
2021/12/09 01:40:14;;;;;;;;;;;;;;;-0.91;100.00;100171.34;5051244;28;20291;-48
2021/12/09 01:42:40;;;;;;;;;;;;;;;-1.00;100.00;100180.19;5084425;28;19932;-56
2021/12/09 01:45:07;;;;;;;;;;;;;;;-1.04;100.00;100183.75;5068690;28;19925;-49
2021/12/09 01:47:34;;;;;;;;;;;;;;;-1.00;100.00;100182.78;5086907;28;19995;-54
2021/12/09 01:50:01;;;;;;;;;;;;;;;-1.01;100.00;100181.06;5052892;28;20411;-49
2021/12/09 01:52:27;;;;;;;;;;;;;;;-1.07;100.00;100173.50;5084051;28;20465;-48
2021/12/09 01:54:54;;;;;;;;;;;;;;;-1.09;100.00;100173.56;5050987;28;20427;-48
2021/12/09 01:57:21;;;;;;;;;;;;;;;-1.13;100.00;100176.25;5049974;28;19936;-48
2021/12/09 01:59:48;;;;;;;;;;;;;;;-1.15;100.00;100170.28;5080773;28;20339;-50
2021/12/09 02:02:14;;;;;;;;;;;;;;;-1.18;100.00;100166.06;5079190;28;19925;-52
2021/12/09 02:04:41;;;;;;;;;;;;;;;-1.22;100.00;100173.03;5047925;28;19992;-50
2021/12/09 02:07:08;;;;;;;;;;;;;;;-1.27;100.00;100177.50;5082382;28;19932;-51
2021/12/09 02:09:35;;;;;;;;;;;;;;;-1.26;100.00;100179.16;5039443;28;20281;-49
2021/12/09 02:12:03;;;;;;;;;;;;;;;-1.27;100.00;100174.91;5042620;28;19936;-52
2021/12/09 02:14:30;;;;;;;;;;;;;;;-1.28;100.00;100173.22;5038577;28;19925;-53
2021/12/09 02:16:56;;;;;;;;;;;;;;;-1.25;100.00;100173.13;5039595;28;20494;-52
2021/12/09 02:19:23;;;;;;;;;;;;;;;-1.13;100.00;100178.81;5031651;28;19975;-51
2021/12/09 02:21:50;;;;;;;;;;;;;;;-1.22;100.00;100175.59;5041894;28;19936;-51
2021/12/09 02:24:17;;;;;;;;;;;;;;;-1.22;100.00;100170.44;5036620;28;20369;-51
2021/12/09 02:26:45;;;;;;;;;;;;;;;-1.20;100.00;100173.84;5039920;28;19925;-51
2021/12/09 02:29:12;;;;;;;;;;;;;;;-1.23;100.00;100175.66;5034361;28;19925;-52
2021/12/09 02:31:39;;;;;;;;;;;;;;;-1.23;100.00;100163.63;5032468;28;19955;-52
2021/12/09 02:34:06;;;;;;;;;;;;;;;-1.23;100.00;100160.16;5053777;28;19974;-53
2021/12/09 02:36:37;;;;;;;;;;;;;;;-1.28;100.00;100169.75;5039356;28;19999;-50
2021/12/09 02:39:05;;;;;;;;;;;;;;;-1.31;100.00;100157.81;5071561;28;19929;-51
2021/12/09 02:41:33;;;;;;;;;;;;;;;-1.29;100.00;100157.78;5038700;28;19936;-52
2021/12/09 02:44:02;;;;;;;;;;;;;;;-1.29;100.00;100157.78;5076727;28;19929;-49
2021/12/09 02:46:34;;;;;;;;;;;;;;;-1.26;100.00;100155.09;5080460;28;19936;-52
2021/12/09 02:49:02;;;;;;;;;;;;;;;-1.30;100.00;100156.91;5039106;28;19925;-54
2021/12/09 02:51:28;;;;;;;;;;;;;;;-1.36;100.00;100151.94;5035463;28;19971;-53
2021/12/09 02:53:55;;;;;;;;;;;;;;;-1.31;100.00;100160.41;5041274;28;19932;-51
2021/12/09 02:56:22;;;;;;;;;;;;;;;-1.32;100.00;100163.88;5043307;28;19963;-50
2021/12/09 02:58:48;;;;;;;;;;;;;;;-1.34;100.00;100170.78;5048774;28;19979;-51
2021/12/09 03:01:21;;;;;;;;;;;;;;;-1.37;100.00;100171.69;5048595;28;19978;-49
2021/12/09 03:03:51;;;;;;;;;;;;;;;-1.41;100.00;100175.25;5036786;28;20364;-50
2021/12/09 03:06:19;;;;;;;;;;;;;;;-1.45;100.00;100183.13;5037366;28;20395;-47
2021/12/09 03:08:46;;;;;;;;;;;;;;;-1.50;100.00;100178.09;5071447;28;19928;-47
2021/12/09 03:11:15;;;;;;;;;;;;;;;-1.45;100.00;100177.97;5067641;28;19925;-49
2021/12/09 03:13:42;;;;;;;;;;;;;;;-1.50;100.00;100178.09;5047921;28;19929;-54
2021/12/09 03:16:09;;;;;;;;;;;;;;;-1.52;100.00;100184.19;5044456;28;19931;-54
2021/12/09 03:18:40;;;;;;;;;;;;;;;-1.52;100.00;100186.75;5046892;28;20318;-57
2021/12/09 03:21:33;;;;;;;;;;;;;;;-1.48;100.00;100188.38;5044314;28;19975;-54
2021/12/09 03:24:00;;;;;;;;;;;;;;;-1.54;100.00;100191.94;5043950;28;19948;-57
2021/12/09 03:26:29;;;;;;;;;;;;;;;-1.57;100.00;100185.16;5062106;28;19933;-56
2021/12/09 03:29:00;;;;;;;;;;;;;;;-1.53;100.00;100191.06;5047944;28;19929;-57
2021/12/09 03:31:27;;;;;;;;;;;;;;;-1.56;100.00;100196.28;5040816;28;19925;-57
2021/12/09 03:33:54;;;;;;;;;;;;;;;-1.59;100.00;100192.06;5055856;28;19929;-50
2021/12/09 03:36:21;;;;;;;;;;;;;;;-1.59;100.00;100199.78;5046545;28;19925;-55
2021/12/09 03:38:48;;;;;;;;;;;;;;;-1.55;100.00;100196.25;5043453;28;19937;-53
2021/12/09 03:41:14;;;;;;;;;;;;;;;-1.39;100.00;100190.69;5048407;28;19929;-49
2021/12/09 03:43:41;;;;;;;;;;;;;;;-1.38;100.00;100195.84;5044888;28;19948;-52
2021/12/09 03:46:08;;;;;;;;;;;;;;;-1.35;100.00;100189.72;5048696;28;20014;-48
2021/12/09 03:48:34;;;;;;;;;;;;;;;-1.40;100.00;100199.34;5034306;28;19948;-50
2021/12/09 03:51:02;;;;;;;;;;;;;;;-1.40;100.00;100201.91;5047527;28;20003;-47
2021/12/09 03:53:29;;;;;;;;;;;;;;;-1.31;100.00;100199.09;5041429;28;19929;-49
2021/12/09 03:55:56;;;;;;;;;;;;;;;-1.39;100.00;100201.88;5041050;28;19932;-49
2021/12/09 03:58:23;;;;;;;;;;;;;;;-1.43;100.00;100204.56;5047034;28;19924;-55
2021/12/09 04:00:50;;;;;;;;;;;;;;;-1.46;100.00;100208.09;5073166;28;19929;-51
2021/12/09 04:03:17;;;;;;;;;;;;;;;-1.48;100.00;100209.84;5041811;28;19940;-55
2021/12/09 04:05:45;;;;;;;;;;;;;;;-1.48;100.00;100201.28;5046164;28;20287;-49
2021/12/09 04:08:12;;;;;;;;;;;;;;;-1.49;100.00;100204.72;5042962;28;19928;-57
2021/12/09 04:10:38;;;;;;;;;;;;;;;-1.52;100.00;100195.31;5042634;28;19924;-57
2021/12/09 04:13:05;;;;;;;;;;;;;;;-1.54;100.00;100195.38;5047622;28;19932;-56
2021/12/09 04:15:32;;;;;;;;;;;;;;;-1.61;100.00;100199.00;5033444;28;20463;-54
2021/12/09 04:17:58;;;;;;;;;;;;;;;-1.61;100.00;100190.41;5038475;28;19928;-51
2021/12/09 04:20:25;;;;;;;;;;;;;;;-1.65;100.00;100196.50;5032735;28;20019;-49
2021/12/09 04:22:52;;;;;;;;;;;;;;;-1.64;100.00;100198.22;5079825;28;19928;-49
2021/12/09 04:25:20;;;;;;;;;;;;;;;-1.63;100.00;100193.03;5045817;28;19933;-48
2021/12/09 04:27:47;;;;;;;;;;;;;;;-1.68;100.00;100197.44;5065216;28;20273;-56
2021/12/09 04:30:14;;;;;;;;;;;;;;;-1.67;100.00;100201.72;5047320;28;19983;-57
2021/12/09 04:32:41;;;;;;;;;;;;;;;-1.68;100.00;100199.19;5048278;28;19960;-52
2021/12/09 04:35:08;;;;;;;;;;;;;;;-1.70;100.00;100199.22;5050779;28;20397;-49
2021/12/09 04:37:35;;;;;;;;;;;;;;;-1.68;100.00;100200.00;5042189;28;20403;-50
2021/12/09 04:40:03;;;;;;;;;;;;;;;-1.66;100.00;100199.97;5039822;28;19925;-52
2021/12/09 04:42:30;;;;;;;;;;;;;;;-1.70;100.00;100204.38;5048418;28;19924;-53
2021/12/09 04:44:56;;;;;;;;;;;;;;;-1.70;100.00;100201.81;5052180;28;19990;-56
2021/12/09 04:47:23;;;;;;;;;;;;;;;-1.74;100.00;100207.91;5052544;28;19932;-55
2021/12/09 04:49:50;;;;;;;;;;;;;;;-1.76;100.00;100218.28;5064042;28;19933;-52
2021/12/09 04:52:17;;;;;;;;;;;;;;;-1.76;100.00;100213.13;5050517;28;19928;-48
2021/12/09 04:54:43;;;;;;;;;;;;;;;-1.77;100.00;100208.84;5052300;28;19987;-48
2021/12/09 04:57:10;;;;;;;;;;;;;;;-1.78;100.00;100204.56;5052331;28;19925;-50
2021/12/09 04:59:37;;;;;;;;;;;;;;;-1.68;100.00;100210.34;5050941;28;20316;-47
2021/12/09 05:02:07;;;;;;;;;;;;;;;-1.73;100.00;100214.78;5050194;28;19925;-51
2021/12/09 05:04:34;;;;;;;;;;;;;;;-1.78;100.00;100211.47;5049394;28;20019;-49
2021/12/09 05:07:00;;;;;;;;;;;;;;;-1.79;100.00;100205.44;5084182;28;19931;-55
2021/12/09 05:09:29;;;;;;;;;;;;;;;-1.79;100.00;100212.34;5082272;28;20442;-50
2021/12/09 05:11:55;;;;;;;;;;;;;;;-1.82;100.00;100208.09;5050115;28;19924;-48
2021/12/09 05:14:23;;;;;;;;;;;;;;;-1.84;100.00;100214.16;5053273;28;19975;-55
2021/12/09 05:16:52;;;;;;;;;;;;;;;-1.87;100.00;100207.34;5085379;28;20988;-49
2021/12/09 05:19:20;;;;;;;;;;;;;;;-1.74;100.00;100208.75;5084282;28;19933;-54
2021/12/09 05:21:46;;;;;;;;;;;;;;;-1.81;100.00;100212.38;5085977;28;19924;-50
2021/12/09 05:24:14;;;;;;;;;;;;;;;-1.83;100.00;100210.72;5056048;28;19971;-56
2021/12/09 05:26:45;;;;;;;;;;;;;;;-1.88;100.00;100216.81;5055604;28;19925;-56
2021/12/09 05:29:13;;;;;;;;;;;;;;;-1.89;100.00;100215.13;5055449;28;19924;-55
2021/12/09 05:34:25;;;;;;;;;;;;;;;-1.92;100.00;100224.69;5053972;28;20275;-54
2021/12/09 05:36:51;;;;;;;;;;;;;;;-1.97;100.00;100222.19;5085263;28;19928;-50
2021/12/09 05:39:18;;;;;;;;;;;;;;;-2.02;100.00;100231.75;5049638;28;19925;-49
2021/12/09 05:41:45;;;;;;;;;;;;;;;-2.02;100.00;100224.03;5051349;28;19929;-53
2021/12/09 05:44:12;;;;;;;;;;;;;;;-2.07;100.00;100224.13;5084791;28;20384;-54
2021/12/09 05:46:48;;;;;;;;;;;;;;;-2.08;100.00;100234.50;5054308;28;19925;-53
2021/12/09 05:49:15;;;;;;;;;;;;;;;-2.09;100.00;100225.88;5083883;28;19925;-54
2021/12/09 05:51:42;;;;;;;;;;;;;;;-2.12;100.00;100241.44;5086298;28;20376;-55
2021/12/09 05:54:09;;;;;;;;;;;;;;;-2.14;100.00;100239.75;5054998;28;19925;-48
2021/12/09 05:56:36;;;;;;;;;;;;;;;-2.10;100.00;100246.53;5055017;28;19933;-55
2021/12/09 05:59:03;;;;;;;;;;;;;;;-2.16;100.00;100244.13;5055257;28;19932;-49
2021/12/09 06:01:29;;;;;;;;;;;;;;;-2.19;100.00;100247.59;5054098;28;19928;-46
2021/12/09 06:03:56;;;;;;;;;;;;;;;-2.14;100.00;100250.06;5083911;28;19951;-51
2021/12/09 06:06:23;;;;;;;;;;;;;;;-2.15;100.00;100254.38;5052024;28;19932;-52
2021/12/09 06:08:50;;;;;;;;;;;;;;;-2.14;100.00;100250.06;5050347;28;20007;-52
2021/12/09 06:11:16;;;;;;;;;;;;;;;-2.21;100.00;100250.22;5052435;28;20367;-53
2021/12/09 06:13:46;;;;;;;;;;;;;;;-2.14;100.00;100247.50;5086840;28;19924;-54
2021/12/09 06:16:12;;;;;;;;;;;;;;;-2.23;100.00;100254.53;5048975;28;19931;-53
2021/12/09 06:18:39;;;;;;;;;;;;;;;-2.24;100.00;100259.72;5052954;28;19968;-55
2021/12/09 06:21:07;;;;;;;;;;;;;;;-2.26;100.00;100266.66;5049947;28;19924;-56
2021/12/09 06:23:33;;;;;;;;;;;;;;;-2.26;100.00;100269.25;5040369;28;20364;-55
2021/12/09 06:26:00;;;;;;;;;;;;;;;-2.28;100.00;100271.81;5042901;28;19968;-52
2021/12/09 06:28:27;;;;;;;;;;;;;;;-2.34;100.00;100269.38;5042436;28;20384;-56
2021/12/09 06:30:53;;;;;;;;;;;;;;;-2.29;100.00;100270.16;5047317;28;19971;-55
2021/12/09 06:33:20;;;;;;;;;;;;;;;-2.36;100.00;100273.72;5042304;28;19924;-53
2021/12/09 06:35:47;;;;;;;;;;;;;;;-2.40;100.00;100264.34;5043193;28;20011;-57
2021/12/09 06:42:45;;;;;;;;;;;;;;;-2.47;100.00;100273.09;5038509;28;19927;-52
2021/12/09 06:45:12;;;;;;;;;;;;;;;-2.46;100.00;100267.91;5063828;28;19925;-54
2021/12/09 06:47:41;;;;;;;;;;;;;;;-2.38;100.00;100275.50;5035922;28;20456;-54
2021/12/09 06:50:09;;;;;;;;;;;;;;;-2.43;100.00;100270.41;5073691;28;20012;-56
2021/12/09 06:52:35;;;;;;;;;;;;;;;-2.44;100.00;100273.03;5063688;28;20490;-49
2021/12/09 06:55:06;;;;;;;;;;;;;;;-2.49;100.00;100277.44;5041802;28;20015;-56
2021/12/09 06:57:33;;;;;;;;;;;;;;;-2.50;100.00;100283.47;5034040;28;19933;-56
2021/12/09 06:59:59;;;;;;;;;;;;;;;-2.48;100.00;100284.28;5039233;28;20412;-48
2021/12/09 07:02:26;;;;;;;;;;;;;;;-2.49;100.00;100293.72;5037833;28;20331;-47
2021/12/09 07:04:53;;;;;;;;;;;;;;;-2.50;100.00;100286.88;5040925;28;20052;-52
2021/12/09 07:07:19;;;;;;;;;;;;;;;-2.47;100.00;100284.22;5051369;28;19994;-51
2021/12/09 07:09:46;;;;;;;;;;;;;;;-2.51;100.00;100276.63;5050092;28;19924;-56
2021/12/09 07:12:13;;;;;;;;;;;;;;;-2.52;100.00;100274.91;5043880;28;19925;-53
2021/12/09 07:14:42;;;;;;;;;;;;;;;-2.55;100.00;100271.53;5036923;28;19925;-52
2021/12/09 07:17:09;;;;;;;;;;;;;;;-2.56;100.00;100269.84;5071200;28;19928;-49
2021/12/09 07:19:36;;;;;;;;;;;;;;;-2.49;100.00;100282.59;5043053;28;19924;-47
2021/12/09 07:22:04;;;;;;;;;;;;;;;-2.45;100.00;100272.19;5051518;28;19994;-55
2021/12/09 07:24:31;;;;;;;;;;;;;;;-2.42;100.00;100276.44;5037795;28;19956;-56
2021/12/09 07:26:57;;;;;;;;;;;;;;;-2.36;100.00;100280.59;5046595;28;20410;-52
2021/12/09 07:29:25;;;;;;;;;;;;;;;-2.39;100.00;100281.50;5042620;28;19964;-54
2021/12/09 07:31:51;;;;;;;;;;;;;;;-2.44;100.00;100293.63;5083173;28;19955;-47
2021/12/09 07:34:18;;;;;;;;;;;;;;;-2.47;100.00;100294.53;5054228;28;19929;-53
2021/12/09 07:36:45;;;;;;;;;;;;;;;-2.47;100.00;100297.13;5041420;28;19987;-52
2021/12/09 07:39:11;;;;;;;;;;;;;;;-2.49;100.00;100303.19;5040350;28;20426;-54
2021/12/09 07:41:38;;;;;;;;;;;;;;;-2.48;100.00;100300.59;5040178;28;19936;-56
2021/12/09 07:44:05;;;;;;;;;;;;;;;-2.51;100.00;100300.63;5032046;28;19948;-50
2021/12/09 07:46:33;;;;;;;;;;;;;;;-2.46;100.00;100301.38;5028816;28;19941;-49
2021/12/09 07:48:59;;;;;;;;;;;;;;;-2.45;100.00;100302.25;5029284;28;20409;-49
2021/12/09 07:51:26;;;;;;;;;;;;;;;-2.45;100.00;100303.09;5033432;28;20015;-55
2021/12/09 07:53:53;;;;;;;;;;;;;;;-2.44;100.00;100302.22;5033065;28;19929;-54
2021/12/09 07:56:19;;;;;;;;;;;;;;;-2.42;100.00;100297.03;5062332;28;20418;-57
2021/12/09 07:58:46;;;;;;;;;;;;;;;-2.33;100.00;100291.72;5031936;28;19925;-53
2021/12/09 08:01:12;;;;;;;;;;;;;;;-2.26;100.00;100298.41;5033432;28;19925;-50
2021/12/09 08:03:39;;;;;;;;;;;;;;;-2.23;100.00;100298.34;5033232;28;19999;-48
2021/12/09 08:06:06;;;;;;;;;;;;;;;-2.20;100.00;100297.44;5032830;28;19925;-56
2021/12/09 08:08:33;;;;;;;;;;;;;;;-2.09;100.00;100294.63;5029252;28;19925;-49
2021/12/09 08:11:00;;;;;;;;;;;;;;;-2.00;100.00;100298.72;5031800;28;19972;-55
2021/12/09 08:13:27;;;;;;;;;;;;;;;-1.89;100.00;100295.03;5033268;28;19931;-49
2021/12/09 08:15:54;;;;;;;;;;;;;;;-1.65;100.00;100292.81;5033084;28;19925;-54
2021/12/09 08:20:48;;;;;;;;;;;;;;;-1.43;100.00;100284.53;5032396;28;20501;-49
2021/12/09 08:23:14;;;;;;;;;;;;;;;-1.33;100.00;100296.31;5046250;28;19929;-56
2021/12/09 08:25:41;;;;;;;;;;;;;;;-1.25;100.00;100284.06;5031565;28;20368;-53
2021/12/09 08:28:08;;;;;;;;;;;;;;;-1.30;100.00;100285.91;5032488;28;19979;-55
2021/12/09 08:30:36;;;;;;;;;;;;;;;-1.14;100.00;100291.56;5029373;28;19929;-52
2021/12/09 08:33:22;;;;;;;;;;;;;;;-1.16;100.00;100298.47;5029897;28;20342;-50
2021/12/09 08:35:49;;;;;;;;;;;;;;;-1.14;100.00;100295.88;5031476;28;20016;-48
2021/12/09 08:38:16;;;;;;;;;;;;;;;-1.13;100.00;100292.38;5063173;28;19925;-50
2021/12/09 08:40:43;;;;;;;;;;;;;;;-1.09;100.00;100284.53;5029317;28;19968;-49
2021/12/09 08:43:10;;;;;;;;;;;;;;;-1.07;100.00;100292.25;5061438;28;19936;-52
2021/12/09 08:45:36;;;;;;;;;;;;;;;-1.04;100.00;100295.59;5064232;28;20007;-50
2021/12/09 08:48:04;;;;;;;;;;;;;;;-0.96;100.00;100300.56;5035434;28;19925;-52
2021/12/09 08:50:33;;;;;;;;;;;;;;;-0.83;100.00;100297.66;5036611;28;20016;-52
2021/12/09 08:53:01;;;;;;;;;;;;;;;-0.78;100.00;100303.53;5034388;28;19933;-51
2021/12/09 08:55:27;;;;;;;;;;;;;;;-0.54;100.00;100305.44;5033602;28;19929;-50
2021/12/09 08:57:54;;;;;;;;;;;;;;;-0.27;100.00;100308.16;5051439;28;19932;-50
2021/12/09 09:00:21;;;;;;;;;;;;;;;-0.10;100.00;100314.56;5036092;28;20016;-49
2021/12/09 09:02:49;;;;;;;;;;;;;;;0.10;100.00;100322.56;5063569;28;19956;-49
2021/12/09 09:05:16;;;;;;;;;;;;;;;0.19;100.00;100315.44;5031539;28;19929;-50
2021/12/09 09:07:46;;;;;;;;;;;;;;;0.13;100.00;100322.47;5034761;28;19952;-50
2021/12/09 09:10:13;;;;;;;;;;;;;;;0.11;100.00;100324.28;5036108;28;19925;-49
2021/12/09 09:12:40;;;;;;;;;;;;;;;0.15;100.00;100319.84;5032173;28;20012;-50
2021/12/09 09:15:08;;;;;;;;;;;;;;;0.19;100.00;100324.03;5032977;28;20653;-47
2021/12/09 09:17:34;;;;;;;;;;;;;;;0.23;100.00;100325.66;5031784;28;19929;-51
2021/12/09 09:20:02;;;;;;;;;;;;;;;0.31;100.00;100330.56;5032594;28;20310;-49
2021/12/09 09:22:29;;;;;;;;;;;;;;;0.33;100.00;100332.22;5032438;28;19925;-50
2021/12/09 09:24:55;;;;;;;;;;;;;;;0.37;100.00;100330.41;5038281;28;19925;-49
2021/12/09 09:27:22;;;;;;;;;;;;;;;0.44;100.00;100331.06;5032076;28;19948;-49
2021/12/09 09:29:49;;;;;;;;;;;;;;;0.52;100.00;100333.38;5032130;28;19929;-49
2021/12/09 09:32:15;;;;;;;;;;;;;;;0.67;100.00;100330.34;5031083;28;19948;-47
2021/12/09 09:34:42;;;;;;;;;;;;;;;0.70;100.00;100335.41;5035441;28;19937;-48
2021/12/09 09:37:09;;;;;;;;;;;;;;;0.77;100.00;100336.06;5039561;28;19936;-47
2021/12/09 09:39:38;;;;;;;;;;;;;;;0.82;100.00;100340.19;5051867;28;19951;-50
2021/12/09 09:44:47;;;;;;;;;;;;;;;0.93;100.00;100323.47;5040161;28;19928;-48
2021/12/09 09:47:14;;;;;;;;;;;;;;;1.01;100.00;100330.06;5043661;28;20306;-48
2021/12/09 09:49:41;;;;;;;;;;;;;;;1.03;100.00;100326.56;5036815;28;20391;-54
2021/12/09 09:52:09;;;;;;;;;;;;;;;1.08;100.00;100319.47;5046605;28;19932;-53
2021/12/09 09:54:39;;;;;;;;;;;;;;;1.14;100.00;100319.28;5044196;28;19964;-51
2021/12/09 09:57:06;;;;;;;;;;;;;;;1.22;100.00;100326.78;5052757;28;19929;-54
2021/12/09 09:59:32;;;;;;;;;;;;;;;1.27;100.00;100323.16;5041899;28;19925;-52
2021/12/09 10:01:59;;;;;;;;;;;;;;;1.33;100.00;100329.84;5031571;28;19929;-49
2021/12/09 10:04:31;;;;;;;;;;;;;;;1.40;100.00;100328.72;5039526;28;19978;-52
2021/12/09 10:06:58;;;;;;;;;;;;;;;1.42;100.00;100331.25;5083639;28;19924;-46
2021/12/09 10:09:25;;;;;;;;;;;;;;;1.52;100.00;100324.88;5053814;28;20024;-48
2021/12/09 10:11:55;;;;;;;;;;;;;;;1.52;100.00;100325.69;5055008;28;19924;-51
2021/12/09 10:14:26;;;;;;;;;;;;;;;1.65;100.00;100326.13;5084283;28;19929;-52
2021/12/09 10:17:13;;;;;;;;;;;;;;;1.64;100.00;100324.41;5043682;28;19941;-53
2021/12/09 10:20:01;;;;;;;;;;;;;;;1.71;100.00;100317.28;5047237;28;20299;-51
2021/12/09 10:22:28;;;;;;;;;;;;;;;1.72;100.00;100316.38;5048260;28;19928;-51
2021/12/09 10:24:56;;;;;;;;;;;;;;;1.73;100.00;100312.84;5042096;28;19970;-57
2021/12/09 10:27:30;;;;;;;;;;;;;;;1.81;100.00;100316.03;5046493;28;20023;-57
2021/12/09 10:30:01;;;;;;;;;;;;;;;1.88;100.00;100310.59;5051271;28;19925;-56
2021/12/09 10:32:32;;;;;;;;;;;;;;;1.92;100.00;100301.81;5043529;28;20289;-56
2021/12/09 10:35:13;;;;;;;;;;;;;;;1.96;100.00;100301.63;5034651;28;19932;-56
2021/12/09 10:37:40;;;;;;;;;;;;;;;1.98;100.00;100309.38;5031770;28;19929;-55
2021/12/09 10:40:08;;;;;;;;;;;;;;;2.05;100.00;100302.19;5031975;28;19924;-51
2021/12/09 10:42:34;;;;;;;;;;;;;;;2.05;100.00;100307.41;5046054;28;19969;-49
2021/12/09 10:45:01;;;;;;;;;;;;;;;2.07;100.00;100306.41;5050143;28;19925;-57
2021/12/09 10:47:49;;;;;;;;;;;;;;;2.15;100.00;100314.72;5048009;28;19956;-54
2021/12/09 10:50:36;;;;;;;;;;;;;;;2.17;100.00;100307.75;5049456;28;20366;-53
2021/12/09 10:53:18;;;;;;;;;;;;;;;2.18;100.00;100311.19;5033528;28;19937;-57
2021/12/09 10:55:46;;;;;;;;;;;;;;;2.23;100.00;100308.44;5025314;28;19929;-54
2021/12/09 10:58:14;;;;;;;;;;;;;;;2.23;100.00;100304.06;5028148;28;19935;-55
2021/12/09 11:00:54;;;;;;;;;;;;;;;2.25;100.00;100310.06;5026690;28;19940;-52
2021/12/09 11:03:23;;;;;;;;;;;;;;;2.26;100.00;100305.69;5028706;28;20657;-55
2021/12/09 11:05:54;;;;;;;;;;;;;;;2.31;100.00;100304.59;5029437;28;19931;-54
2021/12/09 11:08:23;;;;;;;;;;;;;;;2.32;100.00;100303.72;5031499;28;19929;-53
2021/12/09 11:10:53;;;;;;;;;;;;;;;2.34;100.00;100301.06;5023233;28;19962;-56
2021/12/09 11:13:20;;;;;;;;;;;;;;;2.35;100.00;100302.75;5070911;28;19932;-53
2021/12/09 11:15:55;;;;;;;;;;;;;;;2.34;100.00;100286.31;5050076;28;19929;-53
2021/12/09 11:18:39;;;;;;;;;;;;;;;2.39;100.00;100296.53;5052284;28;19924;-52
2021/12/09 11:21:12;;;;;;;;;;;;;;;2.45;100.00;100293.69;5053653;28;19947;-54
2021/12/09 11:23:42;;;;;;;;;;;;;;;2.45;100.00;100287.66;5053279;28;19924;-55
2021/12/09 11:26:27;;;;;;;;;;;;;;;2.50;100.00;100294.34;5082031;28;20390;-58
2021/12/09 11:28:57;;;;;;;;;;;;;;;2.51;100.00;100283.06;5051012;28;19932;-56
2021/12/09 11:31:28;;;;;;;;;;;;;;;2.52;100.00;100286.50;5053307;28;19932;-55
2021/12/09 11:34:01;;;;;;;;;;;;;;;2.50;100.00;100280.53;5053458;28;20291;-52
2021/12/09 11:36:41;;;;;;;;;;;;;;;2.52;100.00;100286.50;5053134;28;19975;-55
2021/12/09 11:39:12;;;;;;;;;;;;;;;2.56;100.00;100282.03;5053176;28;19970;-56
2021/12/09 11:41:40;;;;;;;;;;;;;;;2.59;100.00;100281.91;5053265;28;19925;-57
2021/12/09 11:44:08;;;;;;;;;;;;;;;2.58;100.00;100282.78;5084904;28;19925;-55
2021/12/09 11:46:36;;;;;;;;;;;;;;;2.59;100.00;100280.16;5053376;28;19932;-55
2021/12/09 11:49:03;;;;;;;;;;;;;;;2.69;100.00;100288.41;5067688;28;20038;-52
2021/12/09 11:51:30;;;;;;;;;;;;;;;2.70;100.00;100283.16;5081113;28;20027;-49
2021/12/09 11:54:01;;;;;;;;;;;;;;;2.74;100.00;100278.69;5082079;28;20455;-52
2021/12/09 11:56:38;;;;;;;;;;;;;;;2.77;100.00;100269.91;5083347;28;19931;-48
2021/12/09 11:59:25;;;;;;;;;;;;;;;2.81;100.00;100274.91;5050487;28;19931;-55
2021/12/09 12:11:42;;;;;;;;;;;;;;;2.86;100.00;100260.00;5052575;28;19925;-49
2021/12/09 12:14:10;;;;;;;;;;;;;;;2.91;100.00;100267.56;5073515;28;19936;-55
2021/12/09 12:16:59;;;;;;;;;;;;;;;2.92;100.00;100256.28;5048685;28;20438;-53
2021/12/09 12:19:51;;;;;;;;;;;;;;;2.94;100.00;100251.84;5049523;28;19925;-52
2021/12/09 12:25:41;;;;;;;;;;;;;;;3.01;100.00;100249.84;5050308;28;19972;-54
2021/12/09 12:28:25;;;;;;;;;;;;;;;2.99;100.00;100251.66;5049843;28;20019;-53
2021/12/09 12:33:54;;;;;;;;;;;;;;;2.96;100.00;100256.97;5049306;28;19932;-57
2021/12/09 12:39:35;;;;;;;;;;;;;;;2.96;100.00;100277.75;5046978;28;19936;-55
2021/12/09 12:42:08;;;;;;;;;;;;;;;2.95;100.00;100265.69;5050760;28;19928;-57
2021/12/09 12:44:36;;;;;;;;;;;;;;;3.02;100.00;100264.53;5050595;28;19929;-49
2021/12/09 12:47:14;;;;;;;;;;;;;;;3.01;100.00;100263.69;5048128;28;19933;-53
2021/12/09 12:49:47;;;;;;;;;;;;;;;3.05;100.00;100256.59;5049072;28;20400;-50
2021/12/09 12:52:21;;;;;;;;;;;;;;;3.05;100.00;100248.78;5049567;28;20355;-52
2021/12/09 12:54:59;;;;;;;;;;;;;;;3.06;100.00;100254.84;5049522;28;19925;-57
2021/12/09 12:57:34;;;;;;;;;;;;;;;3.09;100.00;100244.31;5051162;28;20443;-56
2021/12/09 13:00:01;;;;;;;;;;;;;;;3.10;100.00;100246.84;5052213;28;19925;-55
2021/12/09 13:05:05;;;;;;;;;;;;;;;3.13;100.00;100245.88;5052178;28;19924;-55
2021/12/09 13:08:05;;;;;;;;;;;;;;;3.12;100.00;100250.25;5079593;28;19929;-56
2021/12/09 13:13:33;;;;;;;;;;;;;;;3.14;100.00;100251.00;5048880;28;19924;-54
2021/12/09 13:16:11;;;;;;;;;;;;;;;3.13;100.00;100248.47;5048185;28;19931;-52